Time;durP1;ratioP1;P1;durP2;ratioP2;P2;SDS_P1;SDS_P2;PMS_P1;PMS_P2;Temp;Humidity;BMP_temperature;BMP_pressure;BME280_temperature;BME280_humidity;BME280_pressure;Samples;Min_cycle;Max_cycle;Signal;HPM_P1;HPM_P2
2022/08/15 00:01:10;;;;;;;4.80;2.30;;;;;;;;;;7377900;19;20032;-75
2022/08/15 00:03:41;;;;;;;3.55;2.28;;;;;;;;;;7375168;19;20011;-76
2022/08/15 00:06:11;;;;;;;4.13;2.03;;;;;;;;;;7376134;19;20021;-76
2022/08/15 00:08:40;;;;;;;2.95;2.08;;;;;;;;;;7374407;19;20025;-75
2022/08/15 00:11:11;;;;;;;2.42;1.92;;;;;;;;;;7378752;19;20481;-76
2022/08/15 00:13:37;;;;;;;2.70;2.20;;;;;;;;;;7379637;19;20051;-76
2022/08/15 00:16:04;;;;;;;3.95;1.90;;;;;;;;;;7377388;19;20037;-76
2022/08/15 00:18:30;;;;;;;4.55;1.92;;;;;;;;;;7383987;19;20017;-76
2022/08/15 00:20:55;;;;;;;2.80;2.47;;;;;;;;;;7384750;19;20007;-75
2022/08/15 00:23:23;;;;;;;2.33;1.90;;;;;;;;;;7388275;19;20030;-76
2022/08/15 00:25:55;;;;;;;2.85;1.98;;;;;;;;;;7388146;19;20017;-77
2022/08/15 00:28:21;;;;;;;1.83;1.58;;;;;;;;;;7392120;19;20017;-76
2022/08/15 00:30:47;;;;;;;2.35;1.88;;;;;;;;;;7385266;19;20006;-76
2022/08/15 00:33:14;;;;;;;2.00;1.80;;;;;;;;;;7389480;19;20073;-77
2022/08/15 00:35:42;;;;;;;4.07;1.67;;;;;;;;;;7383725;19;20041;-75
2022/08/15 00:38:15;;;;;;;4.60;2.50;;;;;;;;;;7396048;19;20001;-77
2022/08/15 00:43:28;;;;;;;2.58;2.15;;;;;;;;;;7405869;19;20358;-78
2022/08/15 00:45:53;;;;;;;4.78;2.47;;;;;;;;;;7399068;19;20010;-79
2022/08/15 00:51:10;;;;;;;2.60;1.70;;;;;;;;;;7406880;19;20518;-79
2022/08/15 00:53:37;;;;;;;3.30;2.13;;;;;;;;;;7400521;19;20100;-79
2022/08/15 00:56:03;;;;;;;1.90;1.65;;;;;;;;;;7405770;19;20131;-77
2022/08/15 00:58:28;;;;;;;3.20;2.33;;;;;;;;;;7401430;19;20040;-77
2022/08/15 01:00:54;;;;;;;3.72;2.42;;;;;;;;;;7405880;19;20013;-77
2022/08/15 01:03:29;;;;;;;3.00;2.05;;;;;;;;;;7397328;19;20466;-77
2022/08/15 01:05:59;;;;;;;4.70;2.70;;;;;;;;;;7393131;19;20002;-77
2022/08/15 01:08:28;;;;;;;5.93;2.28;;;;;;;;;;7395931;19;20632;-77
2022/08/15 01:10:57;;;;;;;3.35;2.60;;;;;;;;;;7398807;19;20085;-78
2022/08/15 01:13:22;;;;;;;2.88;2.50;;;;;;;;;;7398714;19;20070;-77
2022/08/15 01:15:48;;;;;;;5.18;2.20;;;;;;;;;;7395891;19;20020;-77
2022/08/15 01:18:14;;;;;;;2.97;2.47;;;;;;;;;;7392611;19;20006;-77
2022/08/15 01:20:40;;;;;;;2.85;2.30;;;;;;;;;;7394885;19;20034;-77
2022/08/15 01:23:22;;;;;;;4.68;2.60;;;;;;;;;;7390962;19;20017;-77
2022/08/15 01:26:02;;;;;;;2.08;1.85;;;;;;;;;;7395867;19;20695;-77
2022/08/15 01:28:32;;;;;;;2.38;1.80;;;;;;;;;;7393481;19;20030;-77
2022/08/15 01:31:01;;;;;;;4.03;2.70;;;;;;;;;;7383753;19;21791;-78
2022/08/15 01:33:31;;;;;;;2.75;2.10;;;;;;;;;;7390649;19;20027;-77
2022/08/15 01:35:58;;;;;;;3.03;2.30;;;;;;;;;;7394197;19;20142;-77
2022/08/15 01:38:47;;;;;;;2.83;2.10;;;;;;;;;;7395798;19;20006;-78
2022/08/15 01:41:24;;;;;;;5.72;2.80;;;;;;;;;;7394327;19;20007;-77
2022/08/15 01:44:03;;;;;;;2.20;1.92;;;;;;;;;;7395633;19;20048;-78
2022/08/15 01:46:32;;;;;;;3.08;2.20;;;;;;;;;;7397408;19;20010;-77
2022/08/15 01:49:07;;;;;;;2.92;2.42;;;;;;;;;;7404660;19;20014;-79
2022/08/15 01:51:33;;;;;;;3.70;2.50;;;;;;;;;;7403300;19;20010;-77
2022/08/15 01:54:06;;;;;;;2.25;1.98;;;;;;;;;;7404926;19;20082;-78
2022/08/15 01:56:37;;;;;;;3.65;2.50;;;;;;;;;;7401417;19;20021;-77
2022/08/15 01:59:07;;;;;;;1.92;1.73;;;;;;;;;;7393099;19;20006;-77
2022/08/15 02:01:44;;;;;;;4.03;2.30;;;;;;;;;;7394683;19;20039;-77
2022/08/15 02:04:12;;;;;;;2.88;2.00;;;;;;;;;;7399698;19;20013;-77
2022/08/15 02:06:38;;;;;;;2.03;1.77;;;;;;;;;;7406920;19;20362;-78
2022/08/15 02:09:09;;;;;;;5.30;2.60;;;;;;;;;;7401206;19;20002;-78
2022/08/15 02:11:35;;;;;;;1.90;1.70;;;;;;;;;;7394980;19;20018;-77
2022/08/15 02:14:01;;;;;;;2.13;1.75;;;;;;;;;;7395249;19;20009;-77
2022/08/15 02:16:30;;;;;;;2.92;1.80;;;;;;;;;;7396683;19;20070;-76
2022/08/15 02:18:56;;;;;;;2.83;2.00;;;;;;;;;;7399370;19;20010;-78
2022/08/15 02:21:22;;;;;;;2.85;2.10;;;;;;;;;;7395020;19;20810;-76
2022/08/15 02:23:48;;;;;;;2.80;2.00;;;;;;;;;;7398917;19;20017;-78
2022/08/15 02:26:14;;;;;;;1.98;1.67;;;;;;;;;;7397814;19;20007;-79
2022/08/15 02:28:41;;;;;;;1.65;1.55;;;;;;;;;;7402657;19;20023;-78
2022/08/15 02:31:10;;;;;;;2.78;2.03;;;;;;;;;;7394944;19;20010;-77
2022/08/15 02:33:36;;;;;;;5.18;1.85;;;;;;;;;;7398757;19;20074;-79
2022/08/15 02:36:02;;;;;;;1.90;1.70;;;;;;;;;;7395833;19;20041;-78
2022/08/15 02:38:27;;;;;;;7.53;2.25;;;;;;;;;;7397779;19;20017;-78
2022/08/15 02:40:52;;;;;;;2.28;2.08;;;;;;;;;;7400821;19;20509;-78
2022/08/15 02:43:22;;;;;;;4.72;1.98;;;;;;;;;;7399095;19;20010;-78
2022/08/15 02:45:49;;;;;;;2.97;2.10;;;;;;;;;;7396360;19;20028;-80
2022/08/15 02:48:15;;;;;;;1.80;1.70;;;;;;;;;;7396960;19;20013;-78
2022/08/15 02:50:41;;;;;;;3.63;2.03;;;;;;;;;;7397586;19;20405;-78
2022/08/15 02:53:12;;;;;;;2.90;1.98;;;;;;;;;;7398372;19;20041;-78
2022/08/15 02:55:41;;;;;;;3.03;2.00;;;;;;;;;;7394956;19;20002;-79
2022/08/15 02:58:09;;;;;;;3.58;1.70;;;;;;;;;;7404648;19;20039;-78
2022/08/15 03:00:35;;;;;;;1.90;1.80;;;;;;;;;;7414377;19;20063;-77
2022/08/15 03:03:06;;;;;;;2.38;1.60;;;;;;;;;;7411429;19;19995;-77
2022/08/15 03:05:34;;;;;;;2.75;1.65;;;;;;;;;;7405769;19;20011;-76
2022/08/15 03:08:00;;;;;;;2.60;1.50;;;;;;;;;;7410774;19;19994;-77
2022/08/15 03:10:26;;;;;;;2.63;1.52;;;;;;;;;;7412990;19;20034;-78
2022/08/15 03:13:07;;;;;;;3.38;1.40;;;;;;;;;;7403460;19;20018;-79
2022/08/15 03:15:44;;;;;;;2.42;1.50;;;;;;;;;;7392655;19;20015;-79
2022/08/15 03:18:11;;;;;;;3.25;1.42;;;;;;;;;;7392158;19;20010;-78
2022/08/15 03:20:37;;;;;;;2.10;1.52;;;;;;;;;;7393863;19;20395;-79
2022/08/15 03:23:04;;;;;;;2.65;1.50;;;;;;;;;;7396336;19;20023;-79
2022/08/15 03:25:51;;;;;;;3.65;1.48;;;;;;;;;;7393145;19;20063;-79
2022/08/15 03:29:34;;;;;;;;;;;;;;;;;;;;;
2022/08/15 03:32:54;;;;;;;;;;;;;;;;;;;;;
2022/08/15 03:38:48;;;;;;;3.97;1.48;;;;;;;;;;7384667;19;20989;-77
2022/08/15 03:41:45;;;;;;;7.40;1.65;;;;;;;;;;7398083;19;20006;-80
2022/08/15 03:44:22;;;;;;;3.22;1.60;;;;;;;;;;7392794;19;20006;-80
2022/08/15 03:46:47;;;;;;;1.90;1.38;;;;;;;;;;7381290;19;20482;-77
2022/08/15 03:49:13;;;;;;;2.00;1.40;;;;;;;;;;7386346;19;20022;-77
2022/08/15 03:51:40;;;;;;;2.30;1.55;;;;;;;;;;7387432;19;20015;-77
2022/08/15 03:54:05;;;;;;;3.15;1.63;;;;;;;;;;7406304;19;20010;-79
2022/08/15 03:56:32;;;;;;;2.47;1.45;;;;;;;;;;7404960;19;20003;-78
2022/08/15 03:58:59;;;;;;;4.82;1.13;;;;;;;;;;7402225;19;20015;-77
2022/08/15 04:01:35;;;;;;;2.40;1.30;;;;;;;;;;7400567;19;20331;-79
2022/08/15 04:06:39;;;;;;;;;;;;;;;;;;7406030;19;20010;-79
2022/08/15 04:09:05;;;;;;;3.22;1.67;;;;;;;;;;7397827;19;19929;-77
2022/08/15 04:11:30;;;;;;;2.38;1.50;;;;;;;;;;7387991;19;20042;-77
2022/08/15 04:13:57;;;;;;;2.90;1.63;;;;;;;;;;7392312;19;20485;-77
2022/08/15 04:16:23;;;;;;;2.45;1.55;;;;;;;;;;7387189;19;20122;-77
2022/08/15 04:18:49;;;;;;;6.00;1.80;;;;;;;;;;7391455;19;20011;-76
2022/08/15 04:21:15;;;;;;;3.75;1.40;;;;;;;;;;7389709;19;20010;-76
2022/08/15 04:23:44;;;;;;;5.10;2.03;;;;;;;;;;7390038;19;20018;-76
2022/08/15 04:26:11;;;;;;;4.15;1.60;;;;;;;;;;7395592;19;20018;-76
2022/08/15 04:28:36;;;;;;;3.17;1.38;;;;;;;;;;7396029;19;20735;-76
2022/08/15 04:31:06;;;;;;;3.78;1.30;;;;;;;;;;7393753;19;20048;-76
2022/08/15 04:33:32;;;;;;;3.95;1.63;;;;;;;;;;7402504;19;20078;-78
2022/08/15 04:36:00;;;;;;;4.07;1.80;;;;;;;;;;7403379;19;20504;-79
2022/08/15 04:38:26;;;;;;;2.08;1.50;;;;;;;;;;7406018;19;20329;-79
2022/08/15 04:40:54;;;;;;;1.13;1.08;;;;;;;;;;7400928;19;21797;-78
2022/08/15 04:43:22;;;;;;;2.15;1.25;;;;;;;;;;7397554;19;20010;-77
2022/08/15 04:45:48;;;;;;;4.15;1.50;;;;;;;;;;7390511;19;20010;-75
2022/08/15 04:48:14;;;;;;;6.68;1.40;;;;;;;;;;7388520;19;20015;-75
2022/08/15 04:50:41;;;;;;;4.45;2.08;;;;;;;;;;7384543;19;20021;-74
2022/08/15 04:53:07;;;;;;;2.28;1.30;;;;;;;;;;7389595;19;20047;-76
2022/08/15 04:55:35;;;;;;;5.30;1.58;;;;;;;;;;7387559;19;20073;-76
2022/08/15 04:58:01;;;;;;;2.55;1.40;;;;;;;;;;7385298;19;20035;-76
2022/08/15 05:00:29;;;;;;;5.38;1.63;;;;;;;;;;7387448;19;20010;-75
2022/08/15 05:03:02;;;;;;;4.30;1.55;;;;;;;;;;7376005;19;20477;-75
2022/08/15 05:05:29;;;;;;;4.57;1.75;;;;;;;;;;7381040;19;20014;-75
2022/08/15 05:07:54;;;;;;;4.88;1.33;;;;;;;;;;7383731;19;20034;-75
2022/08/15 05:10:20;;;;;;;1.38;1.23;;;;;;;;;;7385824;19;20093;-76
2022/08/15 05:12:45;;;;;;;1.70;1.27;;;;;;;;;;7381336;19;20007;-75
2022/08/15 05:15:13;;;;;;;2.33;1.33;;;;;;;;;;7378502;19;20006;-76
2022/08/15 05:17:38;;;;;;;2.15;1.30;;;;;;;;;;7383786;19;20049;-76
2022/08/15 05:20:06;;;;;;;2.08;1.00;;;;;;;;;;7383301;19;20006;-76
2022/08/15 05:22:31;;;;;;;1.17;1.08;;;;;;;;;;7380434;19;20788;-75
2022/08/15 05:24:57;;;;;;;1.20;1.10;;;;;;;;;;7379015;19;20002;-76
2022/08/15 05:27:22;;;;;;;1.92;1.20;;;;;;;;;;7380288;19;20003;-76
2022/08/15 05:29:48;;;;;;;1.77;1.20;;;;;;;;;;7378304;19;20074;-76
2022/08/15 05:32:14;;;;;;;2.13;1.30;;;;;;;;;;7380966;19;20003;-78
2022/08/15 05:34:39;;;;;;;0.95;0.82;;;;;;;;;;7392928;19;20011;-76
2022/08/15 05:37:05;;;;;;;1.60;1.00;;;;;;;;;;7389965;19;20011;-77
2022/08/15 05:39:32;;;;;;;2.00;1.25;;;;;;;;;;7384319;19;20072;-77
2022/08/15 05:42:30;;;;;;;1.35;1.13;;;;;;;;;;7383652;19;20014;-76
2022/08/15 05:45:51;;;;;;;1.77;1.20;;;;;;;;;;7397642;19;20375;-78
2022/08/15 05:48:23;;;;;;;1.45;1.05;;;;;;;;;;7399499;19;20029;-77
2022/08/15 05:50:58;;;;;;;4.57;1.40;;;;;;;;;;7405940;19;20017;-76
2022/08/15 05:53:36;;;;;;;1.17;1.02;;;;;;;;;;7387758;19;20050;-76
2022/08/15 05:56:23;;;;;;;2.33;1.20;;;;;;;;;;7391353;19;20179;-76
2022/08/15 05:59:02;;;;;;;2.22;1.10;;;;;;;;;;7397698;19;20029;-77
2022/08/15 06:01:33;;;;;;;3.38;1.40;;;;;;;;;;7397293;19;20035;-78
2022/08/15 06:04:09;;;;;;;2.67;1.20;;;;;;;;;;7385349;19;20027;-76
2022/08/15 06:06:42;;;;;;;2.92;1.45;;;;;;;;;;7383003;19;20082;-75
2022/08/15 06:09:27;;;;;;;2.03;1.15;;;;;;;;;;7386462;19;20026;-76
2022/08/15 06:11:55;;;;;;;;;;;;;;;;;;7388883;19;20014;-77
2022/08/15 06:14:34;;;;;;;3.22;1.27;;;;;;;;;;7388035;19;19918;-77
2022/08/15 06:17:08;;;;;;;2.70;1.30;;;;;;;;;;7388958;19;20086;-79
2022/08/15 06:19:39;;;;;;;2.08;1.30;;;;;;;;;;7384873;19;20014;-80
2022/08/15 06:22:20;;;;;;;3.03;1.20;;;;;;;;;;7391961;19;20003;-79
2022/08/15 06:25:01;;;;;;;3.47;1.10;;;;;;;;;;7389231;19;19998;-80
2022/08/15 06:27:39;;;;;;;2.70;1.27;;;;;;;;;;7391897;19;20014;-79
2022/08/15 06:30:19;;;;;;;3.35;1.10;;;;;;;;;;7390982;19;20014;-78
2022/08/15 06:33:15;;;;;;;1.50;1.40;;;;;;;;;;7391089;19;20331;-79
2022/08/15 06:36:16;;;;;;;7.93;2.75;;;;;;;;;;7393873;19;20739;-79
2022/08/15 06:38:53;;;;;;;1.92;1.13;;;;;;;;;;7396350;19;20015;-80
2022/08/15 06:41:30;;;;;;;1.35;1.00;;;;;;;;;;7389597;19;20193;-79
2022/08/15 06:43:57;;;;;;;1.70;1.20;;;;;;;;;;7386982;19;20388;-80
2022/08/15 06:46:27;;;;;;;3.55;1.30;;;;;;;;;;7390735;19;20631;-79
2022/08/15 06:48:53;;;;;;;3.05;1.17;;;;;;;;;;7381819;19;20021;-79
2022/08/15 06:51:20;;;;;;;2.88;1.00;;;;;;;;;;7391049;19;20007;-78
2022/08/15 06:53:54;;;;;;;1.20;1.10;;;;;;;;;;7394387;19;20011;-81
2022/08/15 06:56:35;;;;;;;3.33;1.50;;;;;;;;;;7393918;19;20022;-79
2022/08/15 06:59:11;;;;;;;2.65;1.33;;;;;;;;;;7397013;19;20023;-78
2022/08/15 07:01:58;;;;;;;2.42;1.60;;;;;;;;;;7385608;19;20003;-78
2022/08/15 07:04:50;;;;;;;2.50;1.15;;;;;;;;;;7396107;19;20011;-76
2022/08/15 07:07:27;;;;;;;0.95;0.90;;;;;;;;;;7400850;19;20018;-78
2022/08/15 07:09:52;;;;;;;3.35;1.00;;;;;;;;;;7391129;19;20083;-78
2022/08/15 07:12:34;;;;;;;1.45;1.30;;;;;;;;;;7396293;19;20023;-79
2022/08/15 07:15:02;;;;;;;1.42;1.13;;;;;;;;;;7394556;19;20014;-79
2022/08/15 07:17:35;;;;;;;1.05;0.90;;;;;;;;;;7396986;19;20420;-79
2022/08/15 07:20:00;;;;;;;1.27;0.90;;;;;;;;;;7401999;19;20021;-78
2022/08/15 07:22:26;;;;;;;1.30;1.10;;;;;;;;;;7395625;19;20003;-79
2022/08/15 07:24:54;;;;;;;1.30;0.90;;;;;;;;;;7395182;19;20397;-79
2022/08/15 07:27:32;;;;;;;1.90;1.10;;;;;;;;;;7403723;19;20010;-78
2022/08/15 07:30:04;;;;;;;1.40;0.90;;;;;;;;;;7392898;19;20018;-78
2022/08/15 07:32:58;;;;;;;1.63;1.25;;;;;;;;;;7395739;19;20127;-76
2022/08/15 07:35:27;;;;;;;1.48;0.90;;;;;;;;;;7396784;19;20010;-79
2022/08/15 07:37:58;;;;;;;4.22;1.00;;;;;;;;;;7399964;19;20031;-78
2022/08/15 07:40:28;;;;;;;1.27;0.90;;;;;;;;;;7403627;19;20078;-79
2022/08/15 07:42:54;;;;;;;1.08;0.82;;;;;;;;;;7402921;19;20074;-82
2022/08/15 07:45:39;;;;;;;1.50;0.90;;;;;;;;;;7403980;19;19999;-79
2022/08/15 07:48:26;;;;;;;1.77;1.08;;;;;;;;;;7404712;19;20010;-80
2022/08/15 07:51:16;;;;;;;0.80;0.80;;;;;;;;;;7402568;19;20097;-81
2022/08/15 07:53:49;;;;;;;1.52;0.77;;;;;;;;;;7403152;19;20022;-79
2022/08/15 07:56:17;;;;;;;2.05;0.90;;;;;;;;;;7399362;19;20039;-80
2022/08/15 07:58:43;;;;;;;2.10;1.02;;;;;;;;;;7402533;19;20021;-80
2022/08/15 08:01:14;;;;;;;1.27;0.90;;;;;;;;;;7400866;19;20407;-79
2022/08/15 08:03:52;;;;;;;1.42;0.98;;;;;;;;;;7404477;19;20038;-80
2022/08/15 08:06:46;;;;;;;1.70;1.20;;;;;;;;;;7406585;19;20067;-80
2022/08/15 08:09:34;;;;;;;1.20;0.80;;;;;;;;;;7404914;19;20018;-80
2022/08/15 08:12:27;;;;;;;3.22;1.10;;;;;;;;;;7407136;19;20018;-79
2022/08/15 08:15:17;;;;;;;0.93;0.93;;;;;;;;;;7403659;19;20022;-80
2022/08/15 08:17:48;;;;;;;1.45;0.90;;;;;;;;;;7407256;19;20018;-79
2022/08/15 08:20:23;;;;;;;1.10;1.00;;;;;;;;;;7400818;19;19998;-80
2022/08/15 08:23:06;;;;;;;2.60;1.10;;;;;;;;;;7407350;19;20010;-80
2022/08/15 08:25:43;;;;;;;1.60;1.10;;;;;;;;;;7401986;19;20045;-80
2022/08/15 08:28:34;;;;;;;2.28;1.17;;;;;;;;;;7401627;19;20015;-80
2022/08/15 08:31:16;;;;;;;1.15;1.05;;;;;;;;;;7402918;19;20112;-80
2022/08/15 08:34:05;;;;;;;2.80;0.90;;;;;;;;;;7401755;19;20003;-80
2022/08/15 08:36:38;;;;;;;0.95;0.90;;;;;;;;;;7399018;19;20010;-79
2022/08/15 08:39:32;;;;;;;1.17;0.90;;;;;;;;;;7399900;19;20040;-79
2022/08/15 08:42:06;;;;;;;1.15;1.05;;;;;;;;;;7405642;19;20513;-80
2022/08/15 08:45:01;;;;;;;1.40;0.95;;;;;;;;;;7405860;19;20020;-79
2022/08/15 08:48:11;;;;;;;1.10;1.00;;;;;;;;;;7406893;19;20101;-80
2022/08/15 08:50:52;;;;;;;1.25;1.00;;;;;;;;;;7401255;19;20009;-80
2022/08/15 08:53:32;;;;;;;2.13;1.10;;;;;;;;;;7397096;19;20021;-81
2022/08/15 08:56:06;;;;;;;1.83;1.20;;;;;;;;;;7400803;19;20022;-80
2022/08/15 08:58:36;;;;;;;1.73;1.10;;;;;;;;;;7400983;19;20014;-79
2022/08/15 09:01:09;;;;;;;1.40;0.90;;;;;;;;;;7403449;19;20433;-80
2022/08/15 09:03:42;;;;;;;2.83;0.90;;;;;;;;;;7401513;19;20055;-80
2022/08/15 09:06:12;;;;;;;1.33;0.90;;;;;;;;;;7403353;19;20018;-80
2022/08/15 09:08:51;;;;;;;2.33;1.00;;;;;;;;;;7402227;19;20010;-80
2022/08/15 09:11:35;;;;;;;2.15;1.00;;;;;;;;;;7398061;19;20016;-84
2022/08/15 09:14:15;;;;;;;2.67;1.00;;;;;;;;;;7399209;19;20395;-79
2022/08/15 09:16:43;;;;;;;3.08;2.15;;;;;;;;;;7399441;19;20022;-80
2022/08/15 09:19:14;;;;;;;0.90;0.90;;;;;;;;;;7398033;19;20017;-81
2022/08/15 09:21:42;;;;;;;2.30;1.10;;;;;;;;;;7397583;19;20508;-79
2022/08/15 09:24:08;;;;;;;2.08;1.15;;;;;;;;;;7399655;19;20014;-79
2022/08/15 09:26:52;;;;;;;2.35;0.93;;;;;;;;;;7397435;19;20011;-79
2022/08/15 09:29:28;;;;;;;2.15;1.20;;;;;;;;;;7397463;19;20117;-80
2022/08/15 09:32:22;;;;;;;3.55;1.05;;;;;;;;;;7410985;19;20006;-80
2022/08/15 09:38:10;;;;;;;2.38;0.95;;;;;;;;;;7400728;19;20003;-80
2022/08/15 09:41:22;;;;;;;0.75;0.75;;;;;;;;;;7410988;19;20039;-80
2022/08/15 09:45:04;;;;;;;;;;;;;;;;;;;;;
2022/08/15 09:55:49;;;;;;;2.15;1.10;;;;;;;;;;7404537;19;20042;-80
2022/08/15 10:11:00;;;;;;;1.48;0.98;;;;;;;;;;7403659;19;20034;-79
2022/08/15 10:14:01;;;;;;;1.05;0.82;;;;;;;;;;7406010;19;20006;-80
2022/08/15 10:17:34;;;;;;;1.25;1.10;;;;;;;;;;7406332;19;20021;-80
2022/08/15 10:20:30;;;;;;;1.35;1.00;;;;;;;;;;7403381;19;20017;-79
2022/08/15 10:36:23;;;;;;;;;;;;;;;;;;;;;
2022/08/15 11:01:39;;;;;;;1.08;0.73;;;;;;;;;;7401616;19;20100;-79
2022/08/15 11:07:40;;;;;;;2.17;0.80;;;;;;;;;;7404785;19;20035;-80
2022/08/15 11:10:27;;;;;;;1.13;0.90;;;;;;;;;;7405064;19;20015;-80
2022/08/15 11:13:47;;;;;;;0.80;0.80;;;;;;;;;;7407945;19;20026;-80
2022/08/15 11:16:16;;;;;;;1.20;0.90;;;;;;;;;;7404483;19;20078;-80
2022/08/15 11:22:18;;;;;;;1.33;1.00;;;;;;;;;;7405077;19;20010;-80
2022/08/15 11:25:29;;;;;;;2.58;0.80;;;;;;;;;;7407028;19;20104;-80
2022/08/15 11:32:21;;;;;;;1.23;0.82;;;;;;;;;;7406045;19;20352;-80
2022/08/15 11:38:18;;;;;;;;;;;;;;;;;;;;;
2022/08/15 11:41:55;;;;;;;;;;;;;;;;;;;;;
2022/08/15 11:50:33;;;;;;;0.70;0.57;;;;;;;;;;7405254;19;20014;-80
2022/08/15 11:55:58;;;;;;;1.58;0.85;;;;;;;;;;7401789;19;20010;-79
2022/08/15 11:59:30;;;;;;;1.00;0.80;;;;;;;;;;7409379;19;20040;-80
2022/08/15 12:06:05;;;;;;;1.35;0.88;;;;;;;;;;7402711;19;20021;-79
2022/08/15 12:11:55;;;;;;;1.27;0.88;;;;;;;;;;7405670;19;20042;-79
2022/08/15 12:15:05;;;;;;;0.90;0.85;;;;;;;;;;7414152;19;20010;-79
2022/08/15 12:21:34;;;;;;;1.70;1.20;;;;;;;;;;7412797;19;20002;-79
2022/08/15 12:24:23;;;;;;;3.55;1.20;;;;;;;;;;7407878;19;20013;-79
2022/08/15 12:27:32;;;;;;;1.90;1.15;;;;;;;;;;7414238;19;20010;-80
2022/08/15 12:29:59;;;;;;;1.10;1.00;;;;;;;;;;7415473;19;20006;-80
2022/08/15 12:33:07;;;;;;;1.90;0.93;;;;;;;;;;7412430;19;20015;-79
2022/08/15 12:35:38;;;;;;;2.88;1.30;;;;;;;;;;7410282;19;20002;-79
2022/08/15 12:38:22;;;;;;;0.88;0.80;;;;;;;;;;7414865;19;20089;-80
2022/08/15 12:40:53;;;;;;;0.93;0.80;;;;;;;;;;7413023;19;20050;-80
2022/08/15 12:43:30;;;;;;;1.13;0.90;;;;;;;;;;7415593;19;20014;-79
2022/08/15 12:45:56;;;;;;;1.00;0.90;;;;;;;;;;7410543;19;20039;-80
2022/08/15 12:48:43;;;;;;;;;;;;;;;;;;;;;
2022/08/15 12:51:30;;;;;;;1.00;0.90;;;;;;;;;;7413852;19;20015;-80
2022/08/15 12:54:01;;;;;;;0.73;0.73;;;;;;;;;;7412378;19;20018;-79
2022/08/15 12:56:28;;;;;;;1.63;1.13;;;;;;;;;;7414240;19;20031;-80
2022/08/15 12:58:58;;;;;;;2.30;1.02;;;;;;;;;;7410397;19;20111;-79
2022/08/15 13:01:27;;;;;;;1.65;0.88;;;;;;;;;;7411738;19;20003;-79
2022/08/15 13:03:55;;;;;;;0.90;0.90;;;;;;;;;;7411823;19;20478;-80
2022/08/15 13:06:33;;;;;;;1.42;1.00;;;;;;;;;;7410531;19;20047;-79
2022/08/15 13:09:27;;;;;;;0.95;0.90;;;;;;;;;;7409884;19;20019;-79
2022/08/15 13:12:04;;;;;;;;;;;;;;;;;;;;;
2022/08/15 13:14:50;;;;;;;1.40;0.98;;;;;;;;;;7412478;19;20018;-80
2022/08/15 13:17:31;;;;;;;1.90;0.93;;;;;;;;;;7409208;19;20015;-79
2022/08/15 13:25:51;;;;;;;2.05;1.00;;;;;;;;;;7410812;19;20021;-79
2022/08/15 13:28:20;;;;;;;1.35;1.02;;;;;;;;;;7411340;19;20122;-79
2022/08/15 13:30:54;;;;;;;2.58;0.90;;;;;;;;;;7412503;19;20010;-79
2022/08/15 13:33:31;;;;;;;1.23;0.90;;;;;;;;;;7413975;19;20034;-79
2022/08/15 13:36:00;;;;;;;2.28;1.20;;;;;;;;;;7410891;19;20487;-79
2022/08/15 13:38:33;;;;;;;1.17;1.00;;;;;;;;;;7412793;19;20088;-80
2022/08/15 13:40:59;;;;;;;0.80;0.80;;;;;;;;;;7411415;19;20058;-79
2022/08/15 13:45:57;;;;;;;1.15;0.80;;;;;;;;;;7406337;19;20089;-79
2022/08/15 13:48:38;;;;;;;1.00;0.90;;;;;;;;;;7410738;19;20014;-80
2022/08/15 13:51:44;;;;;;;1.25;1.02;;;;;;;;;;7411394;19;20019;-80
2022/08/15 13:54:12;;;;;;;0.95;0.93;;;;;;;;;;7410701;19;20074;-79
2022/08/15 13:56:53;;;;;;;1.40;1.05;;;;;;;;;;7412248;19;20034;-79
2022/08/15 13:59:21;;;;;;;1.48;1.10;;;;;;;;;;7408147;19;20655;-79
2022/08/15 14:04:54;;;;;;;1.98;0.75;;;;;;;;;;7412865;19;20011;-80
2022/08/15 14:07:27;;;;;;;1.50;1.08;;;;;;;;;;7406580;19;20027;-80
2022/08/15 14:09:52;;;;;;;3.13;1.13;;;;;;;;;;7400402;19;20039;-79
2022/08/15 14:12:25;;;;;;;1.00;0.90;;;;;;;;;;7389191;19;20011;-80
2022/08/15 14:15:06;;;;;;;5.15;0.93;;;;;;;;;;7396959;19;20018;-80
2022/08/15 14:17:34;;;;;;;1.05;0.85;;;;;;;;;;7387777;19;20190;-80
2022/08/15 14:20:00;;;;;;;3.42;0.98;;;;;;;;;;7388434;19;20002;-79
2022/08/15 14:23:17;;;;;;;1.33;0.93;;;;;;;;;;7395197;19;20010;-80
2022/08/15 14:26:53;;;;;;;;;;;;;;;;;;;;;
2022/08/15 14:30:01;;;;;;;1.92;0.98;;;;;;;;;;7396890;19;20013;-81
2022/08/15 14:32:41;;;;;;;1.10;0.80;;;;;;;;;;7399831;19;20838;-80
2022/08/15 14:35:14;;;;;;;1.08;0.95;;;;;;;;;;7393023;19;20002;-80
2022/08/15 14:38:19;;;;;;;2.17;1.42;;;;;;;;;;7402366;19;20535;-80
2022/08/15 14:41:23;;;;;;;2.95;1.02;;;;;;;;;;7391768;19;20027;-80
2022/08/15 14:43:51;;;;;;;0.80;0.80;;;;;;;;;;7391151;19;20644;-78
2022/08/15 14:46:17;;;;;;;0.90;0.88;;;;;;;;;;7383766;19;19999;-78
2022/08/15 14:48:58;;;;;;;1.15;1.05;;;;;;;;;;7392076;19;20010;-78
2022/08/15 14:58:07;;;;;;;0.83;0.83;;;;;;;;;;7395726;19;20033;-80
2022/08/15 15:01:41;;;;;;;1.17;0.80;;;;;;;;;;7392387;19;20014;-80
2022/08/15 15:09:01;;;;;;;;;;;;;;;;;;;;;
2022/08/15 15:25:54;;;;;;;1.98;1.42;;;;;;;;;;7387587;19;20040;-80
2022/08/15 15:59:47;;;;;;;3.15;2.03;;;;;;;;;;7395686;19;20142;-80
2022/08/15 16:17:30;;;;;;;2.13;0.85;;;;;;;;;;7389862;19;20002;-81
2022/08/15 16:20:47;;;;;;;;;;;;;;;;;;;;;
2022/08/15 16:40:35;;;;;;;1.10;0.85;;;;;;;;;;7396341;19;20022;-80
2022/08/15 16:43:56;;;;;;;1.88;1.00;;;;;;;;;;7400393;19;20082;-79
2022/08/15 16:50:27;;;;;;;1.50;0.93;;;;;;;;;;7396661;19;20091;-80
2022/08/15 17:16:34;;;;;;;;;;;;;;;;;;;;;
2022/08/15 17:23:40;;;;;;;1.85;0.90;;;;;;;;;;7394802;19;20048;-80
2022/08/15 17:30:22;;;;;;;4.68;2.17;;;;;;;;;;7389042;19;20492;-81
2022/08/15 17:33:39;;;;;;;5.20;1.67;;;;;;;;;;7389614;19;20485;-81
2022/08/15 17:36:06;;;;;;;2.00;1.20;;;;;;;;;;7396791;19;20007;-80
2022/08/15 17:38:35;;;;;;;2.08;1.40;;;;;;;;;;7397366;19;20378;-82
2022/08/15 17:41:24;;;;;;;2.85;1.00;;;;;;;;;;7398389;19;20033;-81
2022/08/15 17:43:55;;;;;;;1.52;0.90;;;;;;;;;;7387674;19;20045;-81
2022/08/15 17:46:33;;;;;;;2.70;1.20;;;;;;;;;;7389375;19;20015;-79
2022/08/15 17:49:07;;;;;;;3.53;1.25;;;;;;;;;;7387671;19;20310;-81
2022/08/15 17:51:47;;;;;;;5.37;1.07;;;;;;;;;;7394403;19;20380;-81
2022/08/15 17:54:32;;;;;;;7.30;1.00;;;;;;;;;;7398621;19;20051;-81
2022/08/15 17:57:29;;;;;;;4.63;1.02;;;;;;;;;;7390539;19;20006;-81
2022/08/15 18:00:00;;;;;;;3.78;1.10;;;;;;;;;;7397820;19;20770;-81
2022/08/15 18:02:26;;;;;;;4.40;0.90;;;;;;;;;;7389862;19;20327;-81
2022/08/15 18:04:52;;;;;;;1.20;0.93;;;;;;;;;;7386366;19;20017;-81
2022/08/15 18:07:22;;;;;;;2.42;0.93;;;;;;;;;;7390021;19;20006;-81
2022/08/15 18:09:53;;;;;;;7.90;1.20;;;;;;;;;;7396120;19;20015;-81
2022/08/15 18:12:19;;;;;;;1.55;0.90;;;;;;;;;;7398208;19;20015;-82
2022/08/15 18:14:54;;;;;;;3.60;0.90;;;;;;;;;;7389544;19;20014;-80
2022/08/15 18:17:27;;;;;;;2.28;0.98;;;;;;;;;;7393900;19;20342;-80
2022/08/15 18:20:17;;;;;;;2.83;1.38;;;;;;;;;;7387411;19;20032;-79
2022/08/15 18:22:44;;;;;;;5.43;1.08;;;;;;;;;;7391730;19;20027;-80
2022/08/15 18:25:15;;;;;;;3.33;1.25;;;;;;;;;;7390353;19;20010;-80
2022/08/15 18:27:48;;;;;;;2.08;1.10;;;;;;;;;;7385632;19;20011;-80
2022/08/15 18:30:40;;;;;;;1.13;0.90;;;;;;;;;;7399136;19;20018;-79
2022/08/15 18:33:32;;;;;;;2.67;1.10;;;;;;;;;;7392805;19;20662;-80
2022/08/15 18:36:27;;;;;;;2.03;0.75;;;;;;;;;;7389432;19;20115;-80
2022/08/15 18:41:42;;;;;;;2.17;0.80;;;;;;;;;;7395394;19;20014;-80
2022/08/15 18:44:34;;;;;;;0.80;0.60;;;;;;;;;;7384083;19;20383;-81
2022/08/15 18:47:09;;;;;;;1.67;0.80;;;;;;;;;;7399353;19;19999;-80
2022/08/15 18:49:35;;;;;;;2.03;0.77;;;;;;;;;;7389824;19;20011;-81
2022/08/15 18:52:10;;;;;;;3.53;1.08;;;;;;;;;;7394161;19;20006;-80
2022/08/15 18:54:41;;;;;;;1.45;0.73;;;;;;;;;;7392517;19;20090;-80
2022/08/15 18:57:09;;;;;;;4.18;1.02;;;;;;;;;;7393253;19;20010;-80
2022/08/15 18:59:45;;;;;;;1.52;0.75;;;;;;;;;;7396409;19;20007;-79
2022/08/15 19:05:42;;;;;;;1.88;1.20;;;;;;;;;;7393004;19;20013;-80
2022/08/15 19:08:42;;;;;;;2.42;1.10;;;;;;;;;;7388835;19;20014;-80
2022/08/15 19:11:29;;;;;;;1.33;1.10;;;;;;;;;;7393447;19;20030;-80
2022/08/15 19:14:03;;;;;;;3.25;1.10;;;;;;;;;;7399086;19;20218;-80
2022/08/15 19:17:04;;;;;;;5.47;1.10;;;;;;;;;;7393667;19;20059;-79
2022/08/15 19:20:05;;;;;;;2.75;0.90;;;;;;;;;;7390085;19;20430;-79
2022/08/15 19:22:31;;;;;;;0.95;0.80;;;;;;;;;;7388467;19;20027;-78
2022/08/15 19:24:59;;;;;;;1.35;1.00;;;;;;;;;;7388467;19;20014;-78
2022/08/15 19:27:32;;;;;;;3.35;1.13;;;;;;;;;;7387528;19;20026;-78
2022/08/15 19:30:09;;;;;;;1.02;0.90;;;;;;;;;;7392499;19;20011;-78
2022/08/15 19:32:55;;;;;;;1.42;0.90;;;;;;;;;;7400400;19;20030;-80
2022/08/15 19:35:40;;;;;;;1.67;1.08;;;;;;;;;;7395939;19;20011;-79
2022/08/15 19:38:19;;;;;;;1.33;1.00;;;;;;;;;;7400330;19;20023;-79
2022/08/15 19:41:04;;;;;;;1.00;0.90;;;;;;;;;;7395039;19;20007;-79
2022/08/15 19:44:06;;;;;;;2.63;1.00;;;;;;;;;;7395519;19;20006;-79
2022/08/15 19:47:04;;;;;;;1.73;0.60;;;;;;;;;;7395795;19;20026;-79
2022/08/15 19:52:28;;;;;;;1.50;0.95;;;;;;;;;;7390055;19;20025;-78
2022/08/15 19:55:06;;;;;;;2.05;1.10;;;;;;;;;;7390533;19;20010;-78
2022/08/15 19:57:49;;;;;;;1.63;0.88;;;;;;;;;;7401638;19;20014;-78
2022/08/15 20:00:21;;;;;;;2.55;0.93;;;;;;;;;;7391477;19;21722;-78
2022/08/15 20:03:08;;;;;;;1.38;0.90;;;;;;;;;;7388315;19;20030;-79
2022/08/15 20:05:38;;;;;;;1.48;1.13;;;;;;;;;;7387805;19;20574;-79